Terminal Aerodrome Forecast
Issued by NWS Shreveport, LA

Home | Current Version | Previous Version | Text Only | Print | Product List | Glossary On
Versions: 1 2 3 4 5 6 7 8 9 10 11 12 13 14 15 16 17 18 19 20 21
983
FTUS44 KSHV 300553 AAA
TAFSHV
TAF AMD
KSHV 300553Z 3006/0106 14012G23KT P6SM BKN010 OVC020
     FM300700 18012KT 3SM -SHRA SCT007 BKN020
      TEMPO 3007/3010 22010KT 2SM -TSRA BR OVC020CB
     FM301000 24010KT P6SM VCSH OVC030
     FM301600 25012G18KT P6SM SKC
      TEMPO 3018/3022 25015G25KT
     FM010100 27009KT P6SM BKN250=

USA.gov is the U.S. government's official web portal to all federal, state and local government web resources and services.